Time;durP1;ratioP1;P1;durP2;ratioP2;P2;SDS_P1;SDS_P2;PMS_P1;PMS_P2;Temp;Humidity;BMP_temperature;BMP_pressure;BME280_temperature;BME280_humidity;BME280_pressure;Samples;Min_cycle;Max_cycle;Signal;HPM_P1;HPM_P2
2022/07/27 00:01:45;;;;;;;4.38;0.80;;;14.80;99.90;;;;;;4966108;28;20046;-85
2022/07/27 00:04:13;;;;;;;5.90;0.80;;;14.80;99.90;;;;;;4990216;28;20630;-85
2022/07/27 00:06:38;;;;;;;3.58;0.60;;;14.80;99.90;;;;;;4989039;28;20046;-85
2022/07/27 00:09:04;;;;;;;3.33;0.90;;;14.90;99.90;;;;;;4999199;28;20076;-85
2022/07/27 00:11:30;;;;;;;4.68;0.52;;;14.90;99.90;;;;;;4998328;28;20474;-85
2022/07/27 00:14:00;;;;;;;6.95;0.95;;;14.90;99.90;;;;;;4988161;28;20153;-85
2022/07/27 00:16:26;;;;;;;4.43;0.50;;;15.00;99.90;;;;;;5005182;28;20039;-86
2022/07/27 00:18:54;;;;;;;4.60;0.65;;;15.00;99.90;;;;;;4989416;28;20046;-85
2022/07/27 00:21:25;;;;;;;5.07;0.93;;;15.00;99.90;;;;;;4998014;28;20038;-85
2022/07/27 00:23:54;;;;;;;2.60;0.50;;;15.00;99.90;;;;;;4994045;28;20046;-85
2022/07/27 00:26:20;;;;;;;4.10;0.65;;;15.00;99.90;;;;;;4970697;28;20042;-85
2022/07/27 00:28:47;;;;;;;4.72;0.73;;;14.90;99.90;;;;;;5000991;28;20081;-85
2022/07/27 00:31:14;;;;;;;3.65;0.70;;;14.90;99.90;;;;;;4975270;28;20039;-85
2022/07/27 00:33:41;;;;;;;3.80;0.60;;;14.90;99.90;;;;;;4983537;28;20069;-85
2022/07/27 00:36:07;;;;;;;1.95;0.50;;;14.90;99.90;;;;;;4984071;28;20054;-85
2022/07/27 00:38:33;;;;;;;2.00;0.60;;;14.80;99.90;;;;;;4995924;28;20069;-85
2022/07/27 00:41:02;;;;;;;6.25;0.90;;;14.90;99.90;;;;;;5007703;28;20061;-85
2022/07/27 00:43:27;;;;;;;3.47;0.60;;;14.80;99.90;;;;;;4981837;28;20046;-85
2022/07/27 00:45:53;;;;;;;8.57;0.93;;;14.80;99.90;;;;;;4985266;28;20050;-84
2022/07/27 00:48:19;;;;;;;5.10;0.85;;;14.80;99.90;;;;;;5008980;28;20101;-85
2022/07/27 00:50:46;;;;;;;3.05;0.60;;;14.80;99.90;;;;;;4993350;28;20401;-84
2022/07/27 00:53:11;;;;;;;3.70;0.80;;;14.80;99.90;;;;;;5010571;28;20085;-84
2022/07/27 00:55:38;;;;;;;6.60;0.75;;;14.70;99.90;;;;;;4996686;28;20084;-84
2022/07/27 00:58:07;;;;;;;5.85;1.73;;;14.70;99.90;;;;;;5014350;28;20378;-85
2022/07/27 01:00:37;;;;;;;5.03;0.80;;;14.70;99.90;;;;;;5015704;28;20061;-85
2022/07/27 01:03:03;;;;;;;4.18;0.60;;;14.70;99.90;;;;;;4998023;28;20072;-85
2022/07/27 01:05:30;;;;;;;3.17;0.52;;;14.60;99.90;;;;;;4998339;28;20462;-84
2022/07/27 01:07:57;;;;;;;3.55;0.60;;;14.60;99.90;;;;;;5013850;28;20038;-84
2022/07/27 01:10:26;;;;;;;4.28;1.00;;;14.70;99.90;;;;;;5009454;28;20038;-84
2022/07/27 01:12:52;;;;;;;1.90;0.50;;;14.70;99.90;;;;;;4998483;28;20052;-84
2022/07/27 01:15:18;;;;;;;4.18;1.02;;;14.70;99.90;;;;;;4997299;28;20045;-85
2022/07/27 01:17:44;;;;;;;4.28;0.60;;;14.60;99.90;;;;;;5013884;28;20042;-84
2022/07/27 01:20:09;;;;;;;3.17;0.80;;;14.60;99.90;;;;;;5004065;28;20049;-85
2022/07/27 01:22:35;;;;;;;3.05;0.60;;;14.60;99.90;;;;;;4993414;28;20064;-84
2022/07/27 01:25:01;;;;;;;7.38;0.70;;;14.60;99.90;;;;;;5014795;28;20088;-84
2022/07/27 01:27:27;;;;;;;5.45;0.70;;;14.40;99.90;;;;;;5015605;28;20042;-84
2022/07/27 01:29:52;;;;;;;4.03;0.65;;;14.40;99.90;;;;;;4994755;28;20037;-84
2022/07/27 01:32:19;;;;;;;6.15;0.88;;;14.30;99.90;;;;;;4978044;28;21276;-84
2022/07/27 01:34:45;;;;;;;5.30;1.25;;;14.30;99.90;;;;;;5011378;28;20042;-84
2022/07/27 01:37:10;;;;;;;4.45;0.90;;;14.20;99.90;;;;;;5011052;28;20103;-84
2022/07/27 01:39:36;;;;;;;3.33;0.82;;;14.10;99.90;;;;;;4997470;28;20077;-84
2022/07/27 01:42:03;;;;;;;4.85;1.00;;;14.10;99.90;;;;;;5013008;28;20085;-84
2022/07/27 01:44:29;;;;;;;6.78;1.10;;;14.00;99.90;;;;;;4997333;28;20049;-84
2022/07/27 01:46:58;;;;;;;5.95;1.10;;;14.00;99.90;;;;;;5014196;28;20042;-84
2022/07/27 01:49:23;;;;;;;4.50;1.10;;;13.90;99.90;;;;;;5011602;28;20057;-84
2022/07/27 01:51:52;;;;;;;7.07;1.40;;;13.80;99.90;;;;;;4996095;28;20042;-84
2022/07/27 01:54:18;;;;;;;4.65;1.10;;;13.80;99.90;;;;;;4989598;28;20050;-85
2022/07/27 01:56:44;;;;;;;7.28;1.33;;;13.80;99.90;;;;;;4996443;28;20072;-84
2022/07/27 01:59:09;;;;;;;4.00;0.80;;;13.80;99.90;;;;;;4989748;28;20061;-84
2022/07/27 02:01:35;;;;;;;5.75;1.00;;;13.80;99.90;;;;;;5014049;28;20041;-84
2022/07/27 02:04:01;;;;;;;4.03;0.90;;;13.80;99.90;;;;;;4991979;28;20050;-84
2022/07/27 02:06:26;;;;;;;6.15;1.50;;;13.70;99.90;;;;;;4989142;28;20558;-84
2022/07/27 02:08:52;;;;;;;4.28;1.05;;;13.70;99.90;;;;;;4992173;28;20389;-84
2022/07/27 02:14:01;;;;;;;4.63;1.10;;;13.70;99.90;;;;;;5012988;28;20061;-84
2022/07/27 02:16:27;;;;;;;3.50;1.02;;;13.70;99.90;;;;;;4993442;28;20053;-83
2022/07/27 02:18:54;;;;;;;4.85;1.17;;;13.60;99.90;;;;;;5010730;28;20049;-84
2022/07/27 02:21:19;;;;;;;6.63;1.50;;;13.60;99.90;;;;;;5015034;28;20119;-84
2022/07/27 02:23:47;;;;;;;6.03;1.33;;;13.50;99.90;;;;;;5011810;28;20121;-84
2022/07/27 02:26:13;;;;;;;4.40;1.42;;;13.50;99.90;;;;;;4995733;28;20049;-84
2022/07/27 02:28:38;;;;;;;5.38;1.17;;;13.40;99.90;;;;;;5005103;28;20038;-84
2022/07/27 02:31:04;;;;;;;4.85;1.13;;;13.40;99.90;;;;;;4995928;28;20050;-84
2022/07/27 02:33:30;;;;;;;5.32;1.05;;;13.40;99.90;;;;;;4994289;28;20050;-84
2022/07/27 02:35:57;;;;;;;5.45;1.65;;;13.40;99.90;;;;;;5011114;28;20041;-84
2022/07/27 02:38:31;;;;;;;6.32;1.23;;;13.30;99.90;;;;;;5012710;28;20482;-83
2022/07/27 02:40:57;;;;;;;5.35;1.45;;;13.20;99.90;;;;;;4990257;28;20053;-84
2022/07/27 02:43:23;;;;;;;4.10;1.23;;;13.20;99.90;;;;;;4994603;28;20045;-83
2022/07/27 02:45:48;;;;;;;8.80;1.60;;;13.20;99.90;;;;;;5000927;28;20815;-84
2022/07/27 02:48:14;;;;;;;6.68;1.13;;;13.20;99.90;;;;;;4978542;28;20498;-84
2022/07/27 02:50:40;;;;;;;5.20;1.20;;;13.20;99.90;;;;;;4989432;28;20034;-84
2022/07/27 02:53:05;;;;;;;4.07;1.00;;;13.10;99.90;;;;;;4989760;28;20046;-84
2022/07/27 02:55:31;;;;;;;6.25;1.17;;;13.10;99.90;;;;;;4979182;28;20041;-81
2022/07/27 02:57:56;;;;;;;5.97;1.30;;;13.10;99.90;;;;;;4973482;28;20514;-84
2022/07/27 03:00:22;;;;;;;4.78;1.17;;;13.00;99.90;;;;;;4999168;28;20042;-83
2022/07/27 03:02:48;;;;;;;4.72;1.10;;;13.00;99.90;;;;;;4972134;28;20509;-83
2022/07/27 03:05:14;;;;;;;4.45;1.10;;;13.00;99.90;;;;;;4993120;28;20092;-84
2022/07/27 03:07:40;;;;;;;4.20;1.02;;;13.00;99.90;;;;;;4999478;28;20078;-84
2022/07/27 03:10:06;;;;;;;3.80;1.42;;;13.00;99.90;;;;;;4995537;28;20042;-83
2022/07/27 03:12:31;;;;;;;6.40;1.38;;;13.00;99.90;;;;;;4987004;28;20477;-84
2022/07/27 03:15:00;;;;;;;5.20;1.48;;;13.00;99.90;;;;;;5004427;28;20049;-83
2022/07/27 03:17:28;;;;;;;4.18;1.05;;;13.10;99.90;;;;;;4974591;28;20054;-84
2022/07/27 03:19:54;;;;;;;5.90;1.48;;;13.20;99.90;;;;;;4977151;28;20045;-84
2022/07/27 03:22:20;;;;;;;6.20;1.35;;;13.10;99.90;;;;;;4997604;28;20061;-84
2022/07/27 03:24:45;;;;;;;5.25;1.40;;;13.10;99.90;;;;;;4976947;28;20046;-84
2022/07/27 03:27:12;;;;;;;6.85;1.98;;;13.60;99.90;;;;;;4998151;28;20416;-83
2022/07/27 03:29:38;;;;;;;4.78;1.55;;;13.20;99.90;;;;;;4969949;28;20049;-83
2022/07/27 03:32:03;;;;;;;6.18;1.02;;;13.20;99.90;;;;;;4975473;28;20405;-83
2022/07/27 03:34:29;;;;;;;9.00;1.90;;;13.20;99.90;;;;;;4991754;28;20046;-83
2022/07/27 03:36:55;;;;;;;3.25;1.30;;;13.30;99.90;;;;;;4991709;28;20047;-83
2022/07/27 03:39:21;;;;;;;5.70;1.70;;;13.30;99.90;;;;;;4975337;28;20057;-83
2022/07/27 03:41:46;;;;;;;5.10;1.60;;;13.30;99.90;;;;;;4989441;28;20422;-83
2022/07/27 03:44:12;;;;;;;4.82;1.33;;;13.30;99.90;;;;;;4972395;28;20074;-83
2022/07/27 03:46:39;;;;;;;5.15;1.58;;;13.50;99.90;;;;;;4972920;28;20145;-83
2022/07/27 03:49:04;;;;;;;7.43;1.38;;;13.30;99.90;;;;;;4974066;28;20105;-83
2022/07/27 03:51:30;;;;;;;4.90;1.40;;;13.40;99.90;;;;;;4957169;28;20046;-83
2022/07/27 03:53:56;;;;;;;5.57;1.30;;;13.40;99.90;;;;;;4970446;28;20453;-83
2022/07/27 03:56:22;;;;;;;3.88;1.27;;;13.40;99.90;;;;;;4972444;28;20528;-83
2022/07/27 03:58:48;;;;;;;5.43;1.20;;;13.40;99.90;;;;;;4978635;28;20069;-83
2022/07/27 04:01:14;;;;;;;7.80;1.60;;;13.40;99.90;;;;;;4981023;28;20062;-83
2022/07/27 04:03:40;;;;;;;8.75;1.38;;;13.50;99.90;;;;;;4983492;28;20042;-83
2022/07/27 04:06:05;;;;;;;7.78;1.92;;;13.50;99.90;;;;;;4975034;28;20049;-83
2022/07/27 04:08:31;;;;;;;4.30;1.30;;;13.60;99.90;;;;;;4960454;28;20047;-83
2022/07/27 04:10:56;;;;;;;4.65;1.60;;;13.50;99.90;;;;;;4977302;28;20483;-83
2022/07/27 04:13:22;;;;;;;5.38;1.02;;;13.50;99.90;;;;;;4970948;28;20054;-83
2022/07/27 04:15:48;;;;;;;6.00;1.38;;;13.50;99.90;;;;;;4967701;28;20475;-83
2022/07/27 04:18:14;;;;;;;5.07;1.38;;;13.50;99.90;;;;;;4991706;28;20045;-83
2022/07/27 04:20:40;;;;;;;6.50;1.40;;;13.50;99.90;;;;;;4960522;28;20042;-83
2022/07/27 04:23:05;;;;;;;5.03;1.42;;;13.50;99.90;;;;;;4972437;28;20050;-83
2022/07/27 04:25:31;;;;;;;7.95;2.20;;;13.50;99.90;;;;;;4954781;28;20042;-82
2022/07/27 04:27:58;;;;;;;8.98;1.55;;;13.50;99.90;;;;;;4973875;28;20051;-83
2022/07/27 04:30:24;;;;;;;6.38;1.40;;;13.60;99.90;;;;;;4997616;28;20054;-82
2022/07/27 04:32:51;;;;;;;7.35;1.85;;;13.60;99.90;;;;;;4966692;28;20487;-82
2022/07/27 04:35:16;;;;;;;7.25;1.48;;;13.60;99.90;;;;;;4980635;28;20043;-82
2022/07/27 04:37:42;;;;;;;6.82;1.90;;;13.60;99.90;;;;;;4979155;28;20057;-83
2022/07/27 04:40:08;;;;;;;7.20;1.50;;;13.70;99.90;;;;;;4973159;28;20041;-83
2022/07/27 04:42:34;;;;;;;8.15;1.92;;;13.70;99.90;;;;;;4976988;28;20052;-83
2022/07/27 04:44:59;;;;;;;5.20;1.65;;;13.70;99.90;;;;;;5003052;28;20061;-83
2022/07/27 04:47:25;;;;;;;8.80;1.52;;;13.70;99.90;;;;;;5011685;28;20045;-83
2022/07/27 04:49:51;;;;;;;7.90;1.80;;;13.70;99.90;;;;;;5018124;28;20045;-83
2022/07/27 04:52:16;;;;;;;3.70;0.93;;;13.70;99.90;;;;;;4999357;28;20049;-82
2022/07/27 04:54:42;;;;;;;6.35;1.50;;;13.70;99.90;;;;;;5015055;28;20050;-82
2022/07/27 04:57:08;;;;;;;8.98;1.80;;;13.60;99.90;;;;;;5017447;28;20045;-83
2022/07/27 04:59:33;;;;;;;4.90;1.30;;;13.60;99.90;;;;;;4999076;28;20374;-83
2022/07/27 05:01:59;;;;;;;6.75;1.50;;;13.60;99.90;;;;;;4984945;28;20492;-82
2022/07/27 05:04:25;;;;;;;6.13;1.60;;;13.60;99.90;;;;;;5016223;28;20074;-83
2022/07/27 05:06:50;;;;;;;4.78;1.10;;;13.70;99.90;;;;;;4998478;28;20092;-83
2022/07/27 05:09:16;;;;;;;9.35;1.92;;;13.70;99.90;;;;;;4994446;28;20068;-81
2022/07/27 05:11:41;;;;;;;4.60;1.35;;;13.80;99.90;;;;;;5016796;28;20041;-82
2022/07/27 05:14:07;;;;;;;6.97;1.70;;;13.80;99.90;;;;;;5016171;28;20480;-81
2022/07/27 05:16:33;;;;;;;3.85;1.08;;;13.90;99.90;;;;;;4996274;28;20042;-81
2022/07/27 05:18:58;;;;;;;6.75;1.17;;;14.00;99.90;;;;;;5015213;28;20041;-82
2022/07/27 05:21:26;;;;;;;7.38;1.20;;;14.10;99.90;;;;;;5017720;28;20042;-82
2022/07/27 05:23:51;;;;;;;7.97;1.92;;;14.20;99.90;;;;;;5015651;28;20046;-82
2022/07/27 05:26:17;;;;;;;8.07;1.52;;;14.20;99.90;;;;;;5013136;28;20041;-81
2022/07/27 05:28:43;;;;;;;4.60;1.38;;;14.30;99.90;;;;;;5010737;28;20119;-81
2022/07/27 05:31:08;;;;;;;10.57;1.73;;;14.40;99.90;;;;;;5015183;28;20084;-82
2022/07/27 05:33:34;;;;;;;12.45;2.10;;;14.40;99.90;;;;;;5014210;28;20497;-82
2022/07/27 05:35:59;;;;;;;4.78;1.30;;;14.40;99.90;;;;;;4999338;28;20049;-81
2022/07/27 05:38:25;;;;;;;8.07;1.40;;;14.40;99.90;;;;;;5016333;28;20038;-82
2022/07/27 05:40:52;;;;;;;7.43;1.40;;;14.40;99.90;;;;;;5014305;28;20038;-82
2022/07/27 05:43:17;;;;;;;7.93;1.60;;;14.40;99.90;;;;;;5012808;28;20509;-90
2022/07/27 05:45:43;;;;;;;8.23;1.55;;;14.50;99.90;;;;;;5014241;28;20052;-79
2022/07/27 05:48:09;;;;;;;7.93;1.50;;;14.50;99.90;;;;;;4994319;28;20082;-77
2022/07/27 05:50:35;;;;;;;5.82;1.50;;;14.50;99.90;;;;;;4995401;28;20050;-78
2022/07/27 05:53:02;;;;;;;6.85;1.70;;;14.50;99.90;;;;;;5005485;28;20038;-79
2022/07/27 05:55:28;;;;;;;7.07;1.20;;;14.60;99.90;;;;;;5011877;28;20486;-78
2022/07/27 05:57:54;;;;;;;5.53;1.15;;;14.60;99.90;;;;;;5011951;28;20033;-78
2022/07/27 06:00:20;;;;;;;8.27;1.08;;;14.60;99.90;;;;;;4999952;28;20054;-79
2022/07/27 06:02:45;;;;;;;5.28;1.17;;;14.70;99.90;;;;;;4995265;28;20551;-80
2022/07/27 06:05:11;;;;;;;7.63;1.27;;;14.60;99.90;;;;;;4994420;28;20034;-80
2022/07/27 06:10:20;;;;;;;5.03;1.25;;;14.60;99.90;;;;;;5011601;28;20053;-79
2022/07/27 06:12:46;;;;;;;6.20;1.40;;;14.60;99.90;;;;;;5012915;28;20049;-79
2022/07/27 06:15:13;;;;;;;9.05;1.30;;;14.60;99.90;;;;;;4995163;28;20126;-80
2022/07/27 06:17:39;;;;;;;6.28;1.55;;;14.50;99.90;;;;;;4986575;28;20050;-76
2022/07/27 06:20:07;;;;;;;6.13;1.20;;;14.60;99.90;;;;;;4997484;28;20037;-79
2022/07/27 06:22:42;;;;;;;3.67;1.63;;;14.60;99.90;;;;;;5012581;28;20213;-79
2022/07/27 06:25:08;;;;;;;5.35;1.60;;;14.70;99.90;;;;;;5008678;28;20038;-80
2022/07/27 06:27:36;;;;;;;6.88;1.58;;;14.70;99.90;;;;;;4992235;28;20132;-80
2022/07/27 06:30:03;;;;;;;5.82;1.00;;;14.80;99.90;;;;;;4994360;28;20065;-79
2022/07/27 06:32:28;;;;;;;7.38;1.38;;;14.90;99.90;;;;;;5010806;28;20041;-81
2022/07/27 06:34:54;;;;;;;4.43;1.02;;;14.90;99.90;;;;;;5006665;28;20378;-79
2022/07/27 06:37:19;;;;;;;6.50;1.40;;;15.00;99.90;;;;;;5021200;28;20119;-79
2022/07/27 06:39:45;;;;;;;8.80;1.45;;;15.10;99.90;;;;;;4994407;28;20084;-79
2022/07/27 06:42:13;;;;;;;7.25;1.45;;;15.10;99.90;;;;;;4993558;28;20103;-80
2022/07/27 06:44:39;;;;;;;7.47;1.15;;;15.20;99.90;;;;;;5010690;28;20505;-81
2022/07/27 06:47:06;;;;;;;5.40;1.42;;;15.20;99.90;;;;;;5012149;28;20546;-81
2022/07/27 06:49:32;;;;;;;7.18;1.75;;;15.30;99.90;;;;;;4995315;28;20111;-80
2022/07/27 06:51:57;;;;;;;8.52;1.10;;;15.30;99.90;;;;;;5010192;28;20045;-79
2022/07/27 06:54:23;;;;;;;7.28;1.20;;;15.50;99.90;;;;;;4991932;28;20045;-80
2022/07/27 06:56:49;;;;;;;8.18;1.20;;;15.30;99.90;;;;;;5015648;28;20045;-80
2022/07/27 06:59:14;;;;;;;4.75;1.30;;;15.40;99.90;;;;;;5014164;28;20046;-79
2022/07/27 07:01:40;;;;;;;5.43;1.10;;;15.40;99.90;;;;;;5012648;28;20041;-80
2022/07/27 07:04:05;;;;;;;6.20;0.95;;;15.40;99.90;;;;;;5010114;28;20113;-80
2022/07/27 07:06:31;;;;;;;3.78;0.93;;;15.40;99.90;;;;;;4995352;28;20150;-79
2022/07/27 07:08:57;;;;;;;6.63;1.38;;;15.50;99.90;;;;;;5010958;28;20042;-81
2022/07/27 07:11:22;;;;;;;7.57;1.50;;;15.50;99.90;;;;;;4994146;28;20038;-81
2022/07/27 07:13:48;;;;;;;5.03;1.33;;;15.50;99.90;;;;;;4992106;28;20050;-82
2022/07/27 07:16:14;;;;;;;8.63;1.25;;;15.50;99.90;;;;;;5029137;28;20139;-81
2022/07/27 07:18:39;;;;;;;7.40;1.70;;;15.40;99.90;;;;;;5010346;28;20512;-81
2022/07/27 07:21:05;;;;;;;8.52;1.10;;;15.80;99.90;;;;;;5030428;28;20044;-81
2022/07/27 07:23:30;;;;;;;7.30;1.15;;;15.70;99.90;;;;;;5018345;28;20045;-81
2022/07/27 07:25:56;;;;;;;7.47;0.98;;;15.90;99.90;;;;;;5011896;28;20045;-81
2022/07/27 07:28:22;;;;;;;5.05;1.25;;;16.50;99.90;;;;;;5010152;28;20042;-81
2022/07/27 07:30:48;;;;;;;7.40;1.27;;;16.40;99.90;;;;;;4991667;28;20045;-81
2022/07/27 07:33:13;;;;;;;7.43;1.48;;;16.90;99.90;;;;;;5011838;28;20101;-82
2022/07/27 07:35:40;;;;;;;4.47;1.10;;;17.20;99.90;;;;;;5023048;28;20038;-81
2022/07/27 07:38:06;;;;;;;4.25;0.82;;;17.30;99.90;;;;;;5011086;28;20042;-81
2022/07/27 07:40:31;;;;;;;4.43;0.73;;;17.50;99.90;;;;;;4992791;28;20061;-81
2022/07/27 07:43:00;;;;;;;7.22;0.90;;;18.00;99.90;;;;;;5014293;28;20053;-81
2022/07/27 07:45:27;;;;;;;8.48;1.20;;;18.00;99.90;;;;;;5031159;28;20144;-81
2022/07/27 07:47:53;;;;;;;4.75;0.80;;;18.00;99.90;;;;;;5026180;28;20482;-81
2022/07/27 07:50:20;;;;;;;5.57;1.00;;;18.00;99.90;;;;;;5011357;28;20034;-81
2022/07/27 07:52:50;;;;;;;7.25;1.15;;;18.10;99.90;;;;;;5010345;28;20042;-81
2022/07/27 07:55:21;;;;;;;5.55;0.95;;;18.30;99.90;;;;;;4992418;28;20046;-81
2022/07/27 07:57:47;;;;;;;6.43;1.30;;;18.30;99.90;;;;;;5015668;28;20099;-81
2022/07/27 08:00:13;;;;;;;4.72;0.75;;;18.40;99.90;;;;;;5024487;28;20042;-81
2022/07/27 08:02:46;;;;;;;5.25;0.93;;;18.60;99.90;;;;;;5010727;28;20417;-81
2022/07/27 08:05:12;;;;;;;4.40;0.85;;;18.70;99.90;;;;;;5009215;28;20053;-81
2022/07/27 08:07:39;;;;;;;4.90;0.73;;;19.10;99.90;;;;;;5010229;28;20458;-81
2022/07/27 08:10:06;;;;;;;7.10;1.30;;;19.00;99.90;;;;;;5008331;28;20081;-81
2022/07/27 08:12:33;;;;;;;4.38;1.00;;;18.50;99.90;;;;;;5016832;28;20073;-81
2022/07/27 08:14:59;;;;;;;6.35;1.45;;;18.30;99.90;;;;;;5012840;28;20054;-81
2022/07/27 08:17:24;;;;;;;6.13;1.25;;;18.30;99.90;;;;;;5030291;28;20443;-80
2022/07/27 08:19:50;;;;;;;4.22;0.90;;;17.80;99.90;;;;;;5005947;28;20042;-82
2022/07/27 08:22:15;;;;;;;4.07;0.98;;;17.60;99.90;;;;;;5009834;28;20477;-80
2022/07/27 08:24:41;;;;;;;4.07;0.95;;;17.40;99.90;;;;;;5009051;28;20041;-80
2022/07/27 08:27:07;;;;;;;5.28;1.20;;;17.20;99.90;;;;;;4994525;28;20461;-80
2022/07/27 08:29:32;;;;;;;6.72;1.02;;;17.10;99.90;;;;;;5006929;28;20417;-80
2022/07/27 08:31:58;;;;;;;3.40;1.00;;;17.10;99.90;;;;;;5007616;28;20133;-80
2022/07/27 08:34:23;;;;;;;5.03;1.40;;;17.00;99.90;;;;;;5010221;28;20363;-80
2022/07/27 08:36:49;;;;;;;3.83;1.10;;;16.90;99.90;;;;;;5004522;28;20049;-80
2022/07/27 08:39:14;;;;;;;6.05;1.00;;;16.90;99.90;;;;;;5013626;28;20440;-82
2022/07/27 08:41:41;;;;;;;4.28;0.93;;;16.90;99.90;;;;;;5013129;28;20061;-81
2022/07/27 08:44:10;;;;;;;7.13;1.25;;;17.20;99.90;;;;;;4990281;28;20054;-81
2022/07/27 08:46:39;;;;;;;6.28;1.23;;;17.20;99.90;;;;;;5008795;28;20050;-82
2022/07/27 08:49:06;;;;;;;7.93;1.30;;;16.70;99.90;;;;;;4990881;28;20062;-82
2022/07/27 08:51:31;;;;;;;6.35;1.30;;;16.90;99.90;;;;;;4991192;28;20144;-82
2022/07/27 08:53:57;;;;;;;6.40;1.50;;;16.90;99.90;;;;;;5007312;28;20160;-82
2022/07/27 08:56:23;;;;;;;5.80;1.20;;;17.00;99.90;;;;;;5013084;28;20436;-82
2022/07/27 08:58:49;;;;;;;5.00;1.10;;;17.10;99.90;;;;;;5006614;28;20133;-82
2022/07/27 09:01:14;;;;;;;5.30;0.90;;;17.10;99.90;;;;;;5009145;28;20378;-82
2022/07/27 09:03:40;;;;;;;8.98;1.20;;;17.30;99.90;;;;;;5008761;28;20046;-82
2022/07/27 09:06:06;;;;;;;10.05;1.20;;;17.50;99.90;;;;;;5006376;28;20077;-82
2022/07/27 09:08:32;;;;;;;5.07;0.93;;;17.60;99.90;;;;;;5009865;28;20038;-81
2022/07/27 09:10:59;;;;;;;4.55;0.85;;;17.70;99.90;;;;;;5010488;28;20045;-81
2022/07/27 09:13:29;;;;;;;5.90;1.05;;;17.90;99.90;;;;;;5010024;28;20041;-80
2022/07/27 09:16:06;;;;;;;3.42;0.65;;;18.10;99.90;;;;;;5009972;28;20401;-80
2022/07/27 09:18:36;;;;;;;3.70;0.60;;;18.10;99.90;;;;;;5015742;28;20034;-80
2022/07/27 09:21:10;;;;;;;5.38;0.80;;;18.30;99.90;;;;;;5010031;28;20690;-80
2022/07/27 09:23:42;;;;;;;4.28;0.85;;;18.40;99.90;;;;;;5016833;28;20104;-81
2022/07/27 09:26:09;;;;;;;3.25;1.02;;;18.60;99.90;;;;;;5011362;28;20046;-81
2022/07/27 09:28:36;;;;;;;3.63;0.65;;;18.70;99.90;;;;;;5011052;28;20116;-80
2022/07/27 09:31:06;;;;;;;4.22;0.57;;;18.70;99.90;;;;;;4993678;28;20046;-81
2022/07/27 09:33:43;;;;;;;3.10;0.80;;;18.80;99.90;;;;;;4996223;28;20069;-81
2022/07/27 09:36:10;;;;;;;5.85;0.80;;;18.90;99.90;;;;;;4996123;28;20053;-81
2022/07/27 09:38:35;;;;;;;5.93;0.73;;;19.20;99.90;;;;;;4992450;28;20042;-82
2022/07/27 09:41:03;;;;;;;9.32;0.90;;;19.00;99.90;;;;;;5009324;28;20049;-83
2022/07/27 09:43:29;;;;;;;4.43;0.63;;;19.20;99.90;;;;;;4994669;28;20072;-83
2022/07/27 09:45:55;;;;;;;4.53;0.90;;;19.20;99.90;;;;;;5012750;28;20809;-82
2022/07/27 09:48:22;;;;;;;5.43;0.77;;;19.40;99.90;;;;;;5008904;28;20065;-83
2022/07/27 09:50:59;;;;;;;4.25;0.70;;;19.50;99.90;;;;;;5013944;28;20509;-82
2022/07/27 09:53:28;;;;;;;6.05;0.85;;;20.00;99.90;;;;;;5009200;28;21428;-82
2022/07/27 09:56:01;;;;;;;4.25;0.70;;;19.80;99.90;;;;;;5006040;28;20042;-82
2022/07/27 09:58:50;;;;;;;6.13;0.70;;;19.90;99.90;;;;;;4997426;28;20129;-83
2022/07/27 10:01:21;;;;;;;3.55;0.60;;;20.00;98.60;;;;;;5011248;28;20057;-81
2022/07/27 10:03:49;;;;;;;4.70;0.55;;;20.10;99.90;;;;;;5012654;28;20053;-82
2022/07/27 10:06:15;;;;;;;4.97;1.05;;;20.10;99.90;;;;;;5010012;28;20438;-82
2022/07/27 10:08:46;;;;;;;3.60;0.63;;;20.20;99.90;;;;;;4995812;28;20132;-83
2022/07/27 10:11:13;;;;;;;3.70;1.05;;;20.30;99.90;;;;;;5020371;28;20056;-81
2022/07/27 10:13:40;;;;;;;3.13;0.52;;;20.20;99.50;;;;;;4994113;28;20045;-84
2022/07/27 10:16:11;;;;;;;4.43;1.00;;;20.40;99.10;;;;;;5010339;28;20073;-84
2022/07/27 10:18:36;;;;;;;5.15;0.50;;;20.30;99.00;;;;;;5012542;28;20432;-83
2022/07/27 10:21:07;;;;;;;3.33;0.60;;;20.40;99.20;;;;;;4998697;28;20141;-83
2022/07/27 10:23:36;;;;;;;6.50;0.85;;;20.30;99.00;;;;;;4995084;28;20054;-83
2022/07/27 10:26:23;;;;;;;2.97;0.80;;;20.40;98.70;;;;;;5001468;28;20042;-83
2022/07/27 10:28:49;;;;;;;4.18;0.88;;;20.50;97.90;;;;;;4992433;28;20057;-84
2022/07/27 10:31:19;;;;;;;4.22;0.63;;;20.60;98.10;;;;;;5011512;28;20053;-84
2022/07/27 10:33:56;;;;;;;7.75;0.80;;;20.60;97.90;;;;;;4992524;28;20457;-83
2022/07/27 10:36:22;;;;;;;5.53;0.73;;;20.60;97.20;;;;;;4995413;28;20056;-83
2022/07/27 10:38:50;;;;;;;3.13;0.60;;;20.90;97.80;;;;;;4992087;28;20061;-83
2022/07/27 10:41:27;;;;;;;3.25;0.80;;;21.10;96.90;;;;;;4997309;28;20053;-83
2022/07/27 10:44:21;;;;;;;4.57;0.50;;;21.20;97.20;;;;;;5004204;28;20462;-83
2022/07/27 10:47:03;;;;;;;5.45;1.13;;;21.30;96.20;;;;;;5013401;28;20493;-83
2022/07/27 10:49:31;;;;;;;4.80;0.73;;;21.30;95.20;;;;;;5013034;28;20045;-83
2022/07/27 10:51:59;;;;;;;6.38;0.73;;;21.40;96.30;;;;;;5009514;28;20030;-83
2022/07/27 10:54:29;;;;;;;2.53;0.80;;;21.40;95.60;;;;;;5010839;28;20045;-84
2022/07/27 10:56:57;;;;;;;4.20;1.02;;;21.40;93.80;;;;;;5010014;28;20041;-85
2022/07/27 10:59:38;;;;;;;5.65;0.68;;;21.30;95.20;;;;;;4992829;28;20390;-84
2022/07/27 11:02:05;;;;;;;3.17;0.68;;;21.40;95.50;;;;;;5008603;28;20049;-84
2022/07/27 11:04:32;;;;;;;5.68;0.70;;;21.20;95.30;;;;;;4993650;28;20045;-84
2022/07/27 11:06:59;;;;;;;2.50;0.50;;;21.10;95.00;;;;;;5011416;28;20502;-84
2022/07/27 11:09:54;;;;;;;3.17;0.60;;;21.00;94.30;;;;;;5017278;28;20100;-84
2022/07/27 11:12:25;;;;;;;3.25;0.50;;;20.80;95.50;;;;;;4970674;28;20062;-81
2022/07/27 11:14:51;;;;;;;3.55;0.50;;;20.80;95.40;;;;;;4993588;28;20124;-81
2022/07/27 11:17:20;;;;;;;3.47;0.50;;;20.90;95.60;;;;;;4990100;28;20093;-83
2022/07/27 11:19:58;;;;;;;3.70;0.57;;;20.80;95.20;;;;;;4991230;28;20370;-81
2022/07/27 11:22:36;;;;;;;6.57;0.52;;;20.80;95.40;;;;;;4995250;28;20085;-86
2022/07/27 11:25:03;;;;;;;1.45;0.50;;;21.00;94.40;;;;;;4986956;28;20057;-84
2022/07/27 11:27:32;;;;;;;2.03;0.40;;;21.10;95.20;;;;;;5010734;28;20108;-87
2022/07/27 11:29:57;;;;;;;3.45;0.40;;;21.20;94.90;;;;;;5011250;28;20064;-90
2022/07/27 11:32:23;;;;;;;3.63;0.60;;;21.30;94.90;;;;;;5010956;28;20049;-85
2022/07/27 11:34:50;;;;;;;1.95;0.40;;;21.30;94.70;;;;;;4991733;28;20771;-82
2022/07/27 11:37:22;;;;;;;2.75;0.80;;;21.30;94.40;;;;;;5012185;28;20057;-80
2022/07/27 11:39:58;;;;;;;1.73;0.40;;;21.40;94.50;;;;;;4996693;28;20058;-80
2022/07/27 11:42:35;;;;;;;2.08;0.47;;;21.50;93.30;;;;;;5007801;28;20092;-81
2022/07/27 11:45:00;;;;;;;3.03;0.50;;;21.60;93.50;;;;;;5011404;28;20086;-81
2022/07/27 11:47:28;;;;;;;4.07;0.70;;;21.70;93.50;;;;;;4989982;28;20197;-81
2022/07/27 11:50:04;;;;;;;2.45;0.52;;;21.60;93.20;;;;;;5011780;28;20045;-82
2022/07/27 11:52:29;;;;;;;3.88;0.57;;;21.70;92.70;;;;;;5009284;28;20409;-82
2022/07/27 11:54:55;;;;;;;5.47;0.80;;;21.20;93.30;;;;;;4971669;28;20058;-82
2022/07/27 11:57:32;;;;;;;4.07;0.50;;;21.10;93.70;;;;;;4991172;28;20057;-82
2022/07/27 11:59:58;;;;;;;3.00;0.47;;;21.00;93.60;;;;;;4992442;28;20043;-82
2022/07/27 12:02:25;;;;;;;1.73;0.43;;;20.90;93.70;;;;;;4994275;28;20034;-83
2022/07/27 12:04:54;;;;;;;5.43;0.80;;;21.10;93.00;;;;;;5001612;28;20050;-82
2022/07/27 12:07:31;;;;;;;3.42;0.40;;;21.30;93.10;;;;;;4992626;28;20532;-82
2022/07/27 12:10:00;;;;;;;2.42;0.50;;;21.40;93.30;;;;;;5002830;28;20092;-83
2022/07/27 12:12:30;;;;;;;3.78;0.60;;;21.30;93.10;;;;;;4973030;28;20045;-82
2022/07/27 12:14:57;;;;;;;2.60;0.40;;;21.40;93.20;;;;;;4974606;28;20465;-82
2022/07/27 12:17:37;;;;;;;3.40;0.57;;;21.30;93.10;;;;;;4993329;28;20393;-82
2022/07/27 12:20:09;;;;;;;3.38;0.75;;;21.20;93.00;;;;;;4990030;28;20050;-82
2022/07/27 12:22:37;;;;;;;6.60;0.50;;;21.30;93.30;;;;;;4994064;28;20042;-82
2022/07/27 12:25:17;;;;;;;3.65;0.57;;;21.30;93.40;;;;;;4996183;28;20549;-82
2022/07/27 12:28:04;;;;;;;5.32;0.60;;;21.40;93.60;;;;;;4987781;28;20050;-82
2022/07/27 12:30:41;;;;;;;4.43;0.65;;;21.60;93.20;;;;;;4986995;28;20066;-82
2022/07/27 12:33:26;;;;;;;3.35;0.40;;;21.80;92.70;;;;;;5007382;28;20385;-82
2022/07/27 12:35:52;;;;;;;7.45;0.57;;;22.10;93.50;;;;;;4995162;28;20034;-82
2022/07/27 12:38:18;;;;;;;3.22;0.40;;;22.20;92.80;;;;;;4987510;28;20500;-81
2022/07/27 12:40:51;;;;;;;3.92;0.55;;;22.20;93.30;;;;;;4997686;28;20073;-88
2022/07/27 12:43:19;;;;;;;2.58;0.50;;;22.10;93.10;;;;;;4988449;28;20058;-82
2022/07/27 12:45:49;;;;;;;3.88;0.68;;;22.00;93.00;;;;;;4992215;28;20096;-82
2022/07/27 12:48:26;;;;;;;2.55;0.60;;;22.00;92.80;;;;;;4996413;28;20049;-83
2022/07/27 12:51:01;;;;;;;2.97;0.55;;;21.80;92.70;;;;;;5011085;28;20474;-82
2022/07/27 12:53:27;;;;;;;3.15;0.45;;;21.70;92.30;;;;;;5015048;28;20046;-83